sensor_id;sensor_type;location;lat;lon;timestamp;temperature;humidity
28247;DHT22;34504;53.178;22.058;2022-11-13T00:00:12;11.50;99.90
28247;DHT22;34504;53.178;22.058;2022-11-13T00:03:21;11.50;99.90
28247;DHT22;34504;53.178;22.058;2022-11-13T00:06:09;11.50;99.90
28247;DHT22;34504;53.178;22.058;2022-11-13T00:08:57;11.50;99.90
28247;DHT22;34504;53.178;22.058;2022-11-13T00:11:43;11.50;99.90
28247;DHT22;34504;53.178;22.058;2022-11-13T00:14:30;11.50;99.90
28247;DHT22;34504;53.178;22.058;2022-11-13T00:17:16;11.50;99.90
28247;DHT22;34504;53.178;22.058;2022-11-13T00:20:04;11.50;99.90
28247;DHT22;34504;53.178;22.058;2022-11-13T00:22:50;11.50;99.90
28247;DHT22;34504;53.178;22.058;2022-11-13T00:25:37;11.50;99.90
28247;DHT22;34504;53.178;22.058;2022-11-13T00:28:24;11.50;99.90
28247;DHT22;34504;53.178;22.058;2022-11-13T00:31:13;11.50;99.90
28247;DHT22;34504;53.178;22.058;2022-11-13T00:33:59;11.50;99.90
28247;DHT22;34504;53.178;22.058;2022-11-13T00:37:06;11.50;99.90
28247;DHT22;34504;53.178;22.058;2022-11-13T00:39:52;11.50;99.90
28247;DHT22;34504;53.178;22.058;2022-11-13T00:42:44;11.50;99.90
28247;DHT22;34504;53.178;22.058;2022-11-13T00:45:31;11.50;99.90
28247;DHT22;34504;53.178;22.058;2022-11-13T00:48:18;11.50;99.90
28247;DHT22;34504;53.178;22.058;2022-11-13T00:51:08;11.50;99.90
28247;DHT22;34504;53.178;22.058;2022-11-13T00:53:55;11.50;99.90
28247;DHT22;34504;53.178;22.058;2022-11-13T00:56:41;11.50;99.90
28247;DHT22;34504;53.178;22.058;2022-11-13T00:59:28;11.50;99.90
28247;DHT22;34504;53.178;22.058;2022-11-13T01:02:15;11.50;99.90
28247;DHT22;34504;53.178;22.058;2022-11-13T01:05:02;11.50;99.90
28247;DHT22;34504;53.178;22.058;2022-11-13T01:07:48;11.50;99.90
28247;DHT22;34504;53.178;22.058;2022-11-13T01:10:45;11.50;99.90
28247;DHT22;34504;53.178;22.058;2022-11-13T01:13:40;11.50;99.90
28247;DHT22;34504;53.178;22.058;2022-11-13T01:16:28;11.50;99.90
28247;DHT22;34504;53.178;22.058;2022-11-13T01:19:14;11.50;99.90
28247;DHT22;34504;53.178;22.058;2022-11-13T01:22:01;11.50;99.90
28247;DHT22;34504;53.178;22.058;2022-11-13T01:24:48;11.50;99.90
28247;DHT22;34504;53.178;22.058;2022-11-13T01:27:36;11.50;99.90
28247;DHT22;34504;53.178;22.058;2022-11-13T01:30:25;11.50;99.90
28247;DHT22;34504;53.178;22.058;2022-11-13T01:33:12;11.50;99.90
28247;DHT22;34504;53.178;22.058;2022-11-13T01:36:03;11.50;99.90
28247;DHT22;34504;53.178;22.058;2022-11-13T01:38:54;11.50;99.90
28247;DHT22;34504;53.178;22.058;2022-11-13T01:41:41;11.50;99.90
28247;DHT22;34504;53.178;22.058;2022-11-13T01:44:50;11.50;99.90
28247;DHT22;34504;53.178;22.058;2022-11-13T01:47:37;11.50;99.90
28247;DHT22;34504;53.178;22.058;2022-11-13T01:50:26;11.50;99.90
28247;DHT22;34504;53.178;22.058;2022-11-13T01:53:13;11.50;99.90
28247;DHT22;34504;53.178;22.058;2022-11-13T01:56:00;11.50;99.90
28247;DHT22;34504;53.178;22.058;2022-11-13T01:59:00;11.50;99.90
28247;DHT22;34504;53.178;22.058;2022-11-13T02:01:48;11.50;99.90
28247;DHT22;34504;53.178;22.058;2022-11-13T02:04:35;11.50;99.90
28247;DHT22;34504;53.178;22.058;2022-11-13T02:07:23;11.50;99.90
28247;DHT22;34504;53.178;22.058;2022-11-13T02:10:09;11.50;99.90
28247;DHT22;34504;53.178;22.058;2022-11-13T02:12:56;11.50;99.90
28247;DHT22;34504;53.178;22.058;2022-11-13T02:15:43;11.50;99.90
28247;DHT22;34504;53.178;22.058;2022-11-13T02:18:31;11.50;99.90
28247;DHT22;34504;53.178;22.058;2022-11-13T02:21:21;11.50;99.90
28247;DHT22;34504;53.178;22.058;2022-11-13T02:24:45;11.50;99.90
28247;DHT22;34504;53.178;22.058;2022-11-13T02:27:46;11.50;99.90
28247;DHT22;34504;53.178;22.058;2022-11-13T02:30:34;11.50;99.90
28247;DHT22;34504;53.178;22.058;2022-11-13T02:33:29;11.50;99.90
28247;DHT22;34504;53.178;22.058;2022-11-13T02:36:20;11.50;99.90
28247;DHT22;34504;53.178;22.058;2022-11-13T02:39:09;11.60;99.90
28247;DHT22;34504;53.178;22.058;2022-11-13T02:41:56;11.50;99.90
28247;DHT22;34504;53.178;22.058;2022-11-13T02:44:42;11.50;99.90
28247;DHT22;34504;53.178;22.058;2022-11-13T02:47:32;11.50;99.90
28247;DHT22;34504;53.178;22.058;2022-11-13T02:50:18;11.50;99.90
28247;DHT22;34504;53.178;22.058;2022-11-13T02:53:06;11.50;99.90
28247;DHT22;34504;53.178;22.058;2022-11-13T02:55:53;11.50;99.90
28247;DHT22;34504;53.178;22.058;2022-11-13T02:58:40;11.50;99.90
28247;DHT22;34504;53.178;22.058;2022-11-13T03:01:26;11.50;99.90
28247;DHT22;34504;53.178;22.058;2022-11-13T03:04:15;11.50;99.90
28247;DHT22;34504;53.178;22.058;2022-11-13T03:07:02;11.50;99.90
28247;DHT22;34504;53.178;22.058;2022-11-13T03:09:49;11.50;99.90
28247;DHT22;34504;53.178;22.058;2022-11-13T03:12:37;11.60;99.90
28247;DHT22;34504;53.178;22.058;2022-11-13T03:15:24;11.50;99.90
28247;DHT22;34504;53.178;22.058;2022-11-13T03:18:14;11.60;99.90
28247;DHT22;34504;53.178;22.058;2022-11-13T03:21:08;11.50;99.90
28247;DHT22;34504;53.178;22.058;2022-11-13T03:23:55;11.50;99.90
28247;DHT22;34504;53.178;22.058;2022-11-13T03:26:42;11.50;99.90
28247;DHT22;34504;53.178;22.058;2022-11-13T03:29:31;11.50;99.90
28247;DHT22;34504;53.178;22.058;2022-11-13T03:32:20;11.50;99.90
28247;DHT22;34504;53.178;22.058;2022-11-13T03:35:06;11.50;99.90
28247;DHT22;34504;53.178;22.058;2022-11-13T03:38:02;11.50;99.90
28247;DHT22;34504;53.178;22.058;2022-11-13T03:40:49;11.50;99.90
28247;DHT22;34504;53.178;22.058;2022-11-13T03:43:36;11.60;99.90
28247;DHT22;34504;53.178;22.058;2022-11-13T03:46:23;11.50;99.90
28247;DHT22;34504;53.178;22.058;2022-11-13T03:49:10;11.50;99.90
28247;DHT22;34504;53.178;22.058;2022-11-13T03:51:56;11.50;99.90
28247;DHT22;34504;53.178;22.058;2022-11-13T03:54:43;11.50;99.90
28247;DHT22;34504;53.178;22.058;2022-11-13T03:57:32;11.50;99.90
28247;DHT22;34504;53.178;22.058;2022-11-13T04:00:19;11.50;99.90
28247;DHT22;34504;53.178;22.058;2022-11-13T04:03:06;11.50;99.90
28247;DHT22;34504;53.178;22.058;2022-11-13T04:05:55;11.50;99.90
28247;DHT22;34504;53.178;22.058;2022-11-13T04:08:42;11.50;99.90
28247;DHT22;34504;53.178;22.058;2022-11-13T04:11:30;11.50;99.90
28247;DHT22;34504;53.178;22.058;2022-11-13T04:14:16;11.50;99.90
28247;DHT22;34504;53.178;22.058;2022-11-13T04:17:03;11.50;99.90
28247;DHT22;34504;53.178;22.058;2022-11-13T04:19:49;11.50;99.90
28247;DHT22;34504;53.178;22.058;2022-11-13T04:22:41;11.50;99.90
28247;DHT22;34504;53.178;22.058;2022-11-13T04:25:27;11.50;99.90
28247;DHT22;34504;53.178;22.058;2022-11-13T04:28:15;11.50;99.90
28247;DHT22;34504;53.178;22.058;2022-11-13T04:31:09;11.50;99.90
28247;DHT22;34504;53.178;22.058;2022-11-13T04:34:01;11.50;99.90
28247;DHT22;34504;53.178;22.058;2022-11-13T04:36:47;11.50;99.90
28247;DHT22;34504;53.178;22.058;2022-11-13T04:39:34;11.50;99.90
28247;DHT22;34504;53.178;22.058;2022-11-13T04:42:21;11.50;99.90
28247;DHT22;34504;53.178;22.058;2022-11-13T04:45:40;11.50;99.90
28247;DHT22;34504;53.178;22.058;2022-11-13T04:48:27;11.50;99.90
28247;DHT22;34504;53.178;22.058;2022-11-13T04:51:14;11.50;99.90
28247;DHT22;34504;53.178;22.058;2022-11-13T04:54:01;11.50;99.90
28247;DHT22;34504;53.178;22.058;2022-11-13T04:56:47;11.50;99.90
28247;DHT22;34504;53.178;22.058;2022-11-13T04:59:34;11.50;99.90
28247;DHT22;34504;53.178;22.058;2022-11-13T05:02:21;11.50;99.90
28247;DHT22;34504;53.178;22.058;2022-11-13T05:05:08;11.50;99.90
28247;DHT22;34504;53.178;22.058;2022-11-13T05:07:55;11.50;99.90
28247;DHT22;34504;53.178;22.058;2022-11-13T05:10:41;11.50;99.90
28247;DHT22;34504;53.178;22.058;2022-11-13T05:13:33;11.50;99.90
28247;DHT22;34504;53.178;22.058;2022-11-13T05:16:19;11.50;99.90
28247;DHT22;34504;53.178;22.058;2022-11-13T05:19:06;11.50;99.90
28247;DHT22;34504;53.178;22.058;2022-11-13T05:21:53;11.40;99.90
28247;DHT22;34504;53.178;22.058;2022-11-13T05:24:39;11.50;99.90
28247;DHT22;34504;53.178;22.058;2022-11-13T05:27:26;11.40;99.90
28247;DHT22;34504;53.178;22.058;2022-11-13T05:30:13;11.50;99.90
28247;DHT22;34504;53.178;22.058;2022-11-13T05:33:00;11.40;99.90
28247;DHT22;34504;53.178;22.058;2022-11-13T05:35:48;11.40;99.90
28247;DHT22;34504;53.178;22.058;2022-11-13T05:38:35;11.50;99.90
28247;DHT22;34504;53.178;22.058;2022-11-13T05:41:22;11.40;99.90
28247;DHT22;34504;53.178;22.058;2022-11-13T05:44:08;11.40;99.90
28247;DHT22;34504;53.178;22.058;2022-11-13T05:46:55;11.40;99.90
28247;DHT22;34504;53.178;22.058;2022-11-13T05:49:42;11.40;99.90
28247;DHT22;34504;53.178;22.058;2022-11-13T05:52:28;11.40;99.90
28247;DHT22;34504;53.178;22.058;2022-11-13T05:55:15;11.50;99.90
28247;DHT22;34504;53.178;22.058;2022-11-13T05:58:02;11.50;99.90
28247;DHT22;34504;53.178;22.058;2022-11-13T06:00:48;11.40;99.90
28247;DHT22;34504;53.178;22.058;2022-11-13T06:03:35;11.40;99.90
28247;DHT22;34504;53.178;22.058;2022-11-13T06:06:23;11.40;99.90
28247;DHT22;34504;53.178;22.058;2022-11-13T06:09:13;11.50;99.90
28247;DHT22;34504;53.178;22.058;2022-11-13T06:12:02;11.50;99.90
28247;DHT22;34504;53.178;22.058;2022-11-13T06:14:48;11.40;99.90
28247;DHT22;34504;53.178;22.058;2022-11-13T06:17:34;11.40;99.90
28247;DHT22;34504;53.178;22.058;2022-11-13T06:20:24;11.40;99.90
28247;DHT22;34504;53.178;22.058;2022-11-13T06:23:10;11.50;99.90
28247;DHT22;34504;53.178;22.058;2022-11-13T06:26:05;11.50;99.90
28247;DHT22;34504;53.178;22.058;2022-11-13T06:28:52;11.40;99.90
28247;DHT22;34504;53.178;22.058;2022-11-13T06:31:39;11.50;99.90
28247;DHT22;34504;53.178;22.058;2022-11-13T06:34:25;11.50;99.90
28247;DHT22;34504;53.178;22.058;2022-11-13T06:37:13;11.50;99.90
28247;DHT22;34504;53.178;22.058;2022-11-13T06:40:00;11.50;99.90
28247;DHT22;34504;53.178;22.058;2022-11-13T06:42:47;11.50;99.90
28247;DHT22;34504;53.178;22.058;2022-11-13T06:45:34;11.50;99.90
28247;DHT22;34504;53.178;22.058;2022-11-13T06:48:22;11.50;99.90
28247;DHT22;34504;53.178;22.058;2022-11-13T06:51:12;11.60;99.90
28247;DHT22;34504;53.178;22.058;2022-11-13T06:53:59;11.60;99.90
28247;DHT22;34504;53.178;22.058;2022-11-13T06:56:45;11.60;99.90
28247;DHT22;34504;53.178;22.058;2022-11-13T06:59:32;11.60;99.90
28247;DHT22;34504;53.178;22.058;2022-11-13T07:02:20;11.60;99.90
28247;DHT22;34504;53.178;22.058;2022-11-13T07:05:09;11.60;99.90
28247;DHT22;34504;53.178;22.058;2022-11-13T07:07:56;11.70;99.90
28247;DHT22;34504;53.178;22.058;2022-11-13T07:10:50;11.70;99.90
28247;DHT22;34504;53.178;22.058;2022-11-13T07:13:38;11.70;99.90
28247;DHT22;34504;53.178;22.058;2022-11-13T07:16:27;11.70;99.90
28247;DHT22;34504;53.178;22.058;2022-11-13T07:19:33;11.70;99.90
28247;DHT22;34504;53.178;22.058;2022-11-13T07:22:21;11.70;99.90
28247;DHT22;34504;53.178;22.058;2022-11-13T07:25:07;11.70;99.90
28247;DHT22;34504;53.178;22.058;2022-11-13T07:27:55;11.70;99.90
28247;DHT22;34504;53.178;22.058;2022-11-13T07:30:41;11.80;99.90
28247;DHT22;34504;53.178;22.058;2022-11-13T07:33:28;11.80;99.90
28247;DHT22;34504;53.178;22.058;2022-11-13T07:36:14;11.80;99.90
28247;DHT22;34504;53.178;22.058;2022-11-13T07:39:01;11.80;99.90
28247;DHT22;34504;53.178;22.058;2022-11-13T07:41:48;11.80;99.90
28247;DHT22;34504;53.178;22.058;2022-11-13T07:44:35;11.80;99.90
28247;DHT22;34504;53.178;22.058;2022-11-13T07:47:42;11.80;99.90
28247;DHT22;34504;53.178;22.058;2022-11-13T07:50:32;11.80;99.90
28247;DHT22;34504;53.178;22.058;2022-11-13T07:53:19;11.90;99.90
28247;DHT22;34504;53.178;22.058;2022-11-13T07:56:07;11.90;99.90
28247;DHT22;34504;53.178;22.058;2022-11-13T07:58:53;11.90;99.90
28247;DHT22;34504;53.178;22.058;2022-11-13T08:01:40;11.90;99.90
28247;DHT22;34504;53.178;22.058;2022-11-13T08:04:29;11.90;99.90
28247;DHT22;34504;53.178;22.058;2022-11-13T08:07:15;11.90;99.90
28247;DHT22;34504;53.178;22.058;2022-11-13T08:10:02;12.00;99.90
28247;DHT22;34504;53.178;22.058;2022-11-13T08:13:00;12.00;99.90
28247;DHT22;34504;53.178;22.058;2022-11-13T08:15:47;12.00;99.90
28247;DHT22;34504;53.178;22.058;2022-11-13T08:18:34;12.00;99.90
28247;DHT22;34504;53.178;22.058;2022-11-13T08:21:20;12.00;99.90
28247;DHT22;34504;53.178;22.058;2022-11-13T08:24:08;12.00;99.90
28247;DHT22;34504;53.178;22.058;2022-11-13T08:26:55;12.00;99.90
28247;DHT22;34504;53.178;22.058;2022-11-13T08:29:42;12.10;99.90
28247;DHT22;34504;53.178;22.058;2022-11-13T08:32:29;12.10;99.90
28247;DHT22;34504;53.178;22.058;2022-11-13T08:35:19;12.10;99.90
28247;DHT22;34504;53.178;22.058;2022-11-13T08:38:13;12.10;99.90
28247;DHT22;34504;53.178;22.058;2022-11-13T08:41:02;12.20;99.90
28247;DHT22;34504;53.178;22.058;2022-11-13T08:43:54;12.20;99.90
28247;DHT22;34504;53.178;22.058;2022-11-13T08:46:41;12.20;99.90
28247;DHT22;34504;53.178;22.058;2022-11-13T08:49:31;12.30;99.90
28247;DHT22;34504;53.178;22.058;2022-11-13T08:52:18;12.30;99.90
28247;DHT22;34504;53.178;22.058;2022-11-13T08:55:05;12.30;99.90
28247;DHT22;34504;53.178;22.058;2022-11-13T08:57:53;12.40;99.90
28247;DHT22;34504;53.178;22.058;2022-11-13T09:00:42;12.40;99.90
28247;DHT22;34504;53.178;22.058;2022-11-13T09:03:29;12.40;99.90
28247;DHT22;34504;53.178;22.058;2022-11-13T09:06:17;12.40;99.90
28247;DHT22;34504;53.178;22.058;2022-11-13T09:09:04;12.50;99.90
28247;DHT22;34504;53.178;22.058;2022-11-13T09:11:54;12.50;99.90
28247;DHT22;34504;53.178;22.058;2022-11-13T09:14:40;12.50;99.90
28247;DHT22;34504;53.178;22.058;2022-11-13T09:17:27;12.60;99.90
28247;DHT22;34504;53.178;22.058;2022-11-13T09:20:15;12.60;99.90
28247;DHT22;34504;53.178;22.058;2022-11-13T09:23:08;12.60;99.90
28247;DHT22;34504;53.178;22.058;2022-11-13T09:25:55;12.60;99.90
28247;DHT22;34504;53.178;22.058;2022-11-13T09:28:44;12.70;99.90
28247;DHT22;34504;53.178;22.058;2022-11-13T09:31:32;12.70;99.90
28247;DHT22;34504;53.178;22.058;2022-11-13T09:34:19;12.70;99.90
28247;DHT22;34504;53.178;22.058;2022-11-13T09:37:06;12.70;99.90
28247;DHT22;34504;53.178;22.058;2022-11-13T09:39:58;12.80;99.90
28247;DHT22;34504;53.178;22.058;2022-11-13T09:42:45;12.80;99.90
28247;DHT22;34504;53.178;22.058;2022-11-13T09:45:32;12.80;99.90
28247;DHT22;34504;53.178;22.058;2022-11-13T09:48:35;12.90;99.90
28247;DHT22;34504;53.178;22.058;2022-11-13T09:51:27;12.90;99.90
28247;DHT22;34504;53.178;22.058;2022-11-13T09:54:15;13.00;99.90
28247;DHT22;34504;53.178;22.058;2022-11-13T09:57:42;13.00;99.90
28247;DHT22;34504;53.178;22.058;2022-11-13T10:00:33;13.00;99.90
28247;DHT22;34504;53.178;22.058;2022-11-13T10:03:39;13.10;99.90
28247;DHT22;34504;53.178;22.058;2022-11-13T10:07:14;13.00;99.90
28247;DHT22;34504;53.178;22.058;2022-11-13T10:13:44;13.10;99.90
28247;DHT22;34504;53.178;22.058;2022-11-13T10:17:01;13.10;99.90
28247;DHT22;34504;53.178;22.058;2022-11-13T10:22:52;13.20;99.90
28247;DHT22;34504;53.178;22.058;2022-11-13T10:25:43;13.20;99.90
28247;DHT22;34504;53.178;22.058;2022-11-13T10:28:33;13.20;99.90
28247;DHT22;34504;53.178;22.058;2022-11-13T10:31:51;13.20;99.90
28247;DHT22;34504;53.178;22.058;2022-11-13T10:34:38;13.20;99.90
28247;DHT22;34504;53.178;22.058;2022-11-13T10:37:44;13.30;99.90
28247;DHT22;34504;53.178;22.058;2022-11-13T10:40:37;13.30;99.90
28247;DHT22;34504;53.178;22.058;2022-11-13T10:43:25;13.30;99.90
28247;DHT22;34504;53.178;22.058;2022-11-13T10:46:23;13.30;99.90
28247;DHT22;34504;53.178;22.058;2022-11-13T10:49:16;13.40;99.90
28247;DHT22;34504;53.178;22.058;2022-11-13T10:52:03;13.40;99.90
28247;DHT22;34504;53.178;22.058;2022-11-13T10:58:14;13.40;99.90
28247;DHT22;34504;53.178;22.058;2022-11-13T11:01:19;13.50;99.90
28247;DHT22;34504;53.178;22.058;2022-11-13T11:04:28;13.50;99.90
28247;DHT22;34504;53.178;22.058;2022-11-13T11:07:22;13.50;99.90
28247;DHT22;34504;53.178;22.058;2022-11-13T11:10:32;13.50;99.90
28247;DHT22;34504;53.178;22.058;2022-11-13T11:13:23;13.50;99.90
28247;DHT22;34504;53.178;22.058;2022-11-13T11:16:15;13.50;99.90
28247;DHT22;34504;53.178;22.058;2022-11-13T11:19:08;13.50;99.90
28247;DHT22;34504;53.178;22.058;2022-11-13T11:22:08;13.50;99.90
28247;DHT22;34504;53.178;22.058;2022-11-13T11:25:40;13.40;99.90
28247;DHT22;34504;53.178;22.058;2022-11-13T11:28:46;13.40;99.90
28247;DHT22;34504;53.178;22.058;2022-11-13T11:37:23;13.40;99.90
28247;DHT22;34504;53.178;22.058;2022-11-13T11:40:39;13.40;99.90
28247;DHT22;34504;53.178;22.058;2022-11-13T11:43:44;13.40;99.90
28247;DHT22;34504;53.178;22.058;2022-11-13T11:46:32;13.40;99.90
28247;DHT22;34504;53.178;22.058;2022-11-13T11:49:21;13.40;99.90
28247;DHT22;34504;53.178;22.058;2022-11-13T12:02:10;13.40;99.90
28247;DHT22;34504;53.178;22.058;2022-11-13T12:11:28;13.40;99.90
28247;DHT22;34504;53.178;22.058;2022-11-13T12:26:35;13.50;99.90
28247;DHT22;34504;53.178;22.058;2022-11-13T12:35:46;13.60;99.90
28247;DHT22;34504;53.178;22.058;2022-11-13T12:42:19;13.60;99.90
28247;DHT22;34504;53.178;22.058;2022-11-13T12:48:41;13.60;99.90
28247;DHT22;34504;53.178;22.058;2022-11-13T12:51:56;13.60;99.90
28247;DHT22;34504;53.178;22.058;2022-11-13T12:54:43;13.60;99.90
28247;DHT22;34504;53.178;22.058;2022-11-13T12:57:31;13.60;99.90
28247;DHT22;34504;53.178;22.058;2022-11-13T13:00:26;13.60;99.90
28247;DHT22;34504;53.178;22.058;2022-11-13T13:09:27;13.60;99.90
28247;DHT22;34504;53.178;22.058;2022-11-13T13:12:31;13.60;99.90
28247;DHT22;34504;53.178;22.058;2022-11-13T13:18:10;13.60;99.90
28247;DHT22;34504;53.178;22.058;2022-11-13T13:23:47;13.50;99.90
28247;DHT22;34504;53.178;22.058;2022-11-13T13:26:44;13.60;99.90
28247;DHT22;34504;53.178;22.058;2022-11-13T13:29:32;13.50;99.90
28247;DHT22;34504;53.178;22.058;2022-11-13T13:38:27;13.50;99.90
28247;DHT22;34504;53.178;22.058;2022-11-13T13:47:34;13.50;99.90
28247;DHT22;34504;53.178;22.058;2022-11-13T13:50:32;13.40;99.90
28247;DHT22;34504;53.178;22.058;2022-11-13T13:53:25;13.40;99.90
28247;DHT22;34504;53.178;22.058;2022-11-13T13:56:13;13.40;99.90
28247;DHT22;34504;53.178;22.058;2022-11-13T13:59:00;13.40;99.90
28247;DHT22;34504;53.178;22.058;2022-11-13T14:01:59;13.30;99.90
28247;DHT22;34504;53.178;22.058;2022-11-13T14:04:50;13.30;99.90
28247;DHT22;34504;53.178;22.058;2022-11-13T14:07:44;13.30;99.90
28247;DHT22;34504;53.178;22.058;2022-11-13T14:10:31;13.30;99.90
28247;DHT22;34504;53.178;22.058;2022-11-13T14:13:26;13.20;99.90
28247;DHT22;34504;53.178;22.058;2022-11-13T14:16:13;13.20;99.90
28247;DHT22;34504;53.178;22.058;2022-11-13T14:19:04;13.20;99.90
28247;DHT22;34504;53.178;22.058;2022-11-13T14:21:57;13.20;99.90
28247;DHT22;34504;53.178;22.058;2022-11-13T14:24:51;13.20;99.90
28247;DHT22;34504;53.178;22.058;2022-11-13T14:27:38;13.10;99.90
28247;DHT22;34504;53.178;22.058;2022-11-13T14:30:27;13.10;99.90
28247;DHT22;34504;53.178;22.058;2022-11-13T14:33:19;13.10;99.90
28247;DHT22;34504;53.178;22.058;2022-11-13T14:36:07;13.10;99.90
28247;DHT22;34504;53.178;22.058;2022-11-13T14:38:55;13.00;99.90
28247;DHT22;34504;53.178;22.058;2022-11-13T14:41:51;13.00;99.90
28247;DHT22;34504;53.178;22.058;2022-11-13T14:44:41;13.00;99.90
28247;DHT22;34504;53.178;22.058;2022-11-13T14:47:30;13.00;99.90
28247;DHT22;34504;53.178;22.058;2022-11-13T14:50:29;13.00;99.90
28247;DHT22;34504;53.178;22.058;2022-11-13T14:53:40;12.90;99.90
28247;DHT22;34504;53.178;22.058;2022-11-13T14:56:35;12.90;99.90
28247;DHT22;34504;53.178;22.058;2022-11-13T14:59:28;12.90;99.90
28247;DHT22;34504;53.178;22.058;2022-11-13T15:02:15;12.80;99.90
28247;DHT22;34504;53.178;22.058;2022-11-13T15:05:01;12.80;99.90
28247;DHT22;34504;53.178;22.058;2022-11-13T15:07:49;12.80;99.90
28247;DHT22;34504;53.178;22.058;2022-11-13T15:10:36;12.80;99.90
28247;DHT22;34504;53.178;22.058;2022-11-13T15:13:22;12.80;99.90
28247;DHT22;34504;53.178;22.058;2022-11-13T15:16:18;12.70;99.90
28247;DHT22;34504;53.178;22.058;2022-11-13T15:22:14;12.70;99.90
28247;DHT22;34504;53.178;22.058;2022-11-13T15:25:18;12.70;99.90
28247;DHT22;34504;53.178;22.058;2022-11-13T15:28:05;12.60;99.90
28247;DHT22;34504;53.178;22.058;2022-11-13T15:30:52;12.60;99.90
28247;DHT22;34504;53.178;22.058;2022-11-13T15:33:39;12.50;99.90
28247;DHT22;34504;53.178;22.058;2022-11-13T15:36:25;12.60;99.90
28247;DHT22;34504;53.178;22.058;2022-11-13T15:39:12;12.50;99.90
28247;DHT22;34504;53.178;22.058;2022-11-13T15:42:16;12.50;99.90
28247;DHT22;34504;53.178;22.058;2022-11-13T15:45:03;12.50;99.90
28247;DHT22;34504;53.178;22.058;2022-11-13T15:47:51;12.40;99.90
28247;DHT22;34504;53.178;22.058;2022-11-13T15:50:37;12.40;99.90
28247;DHT22;34504;53.178;22.058;2022-11-13T15:53:23;12.30;99.90
28247;DHT22;34504;53.178;22.058;2022-11-13T15:56:11;12.30;99.90
28247;DHT22;34504;53.178;22.058;2022-11-13T15:58:58;12.30;99.90
28247;DHT22;34504;53.178;22.058;2022-11-13T16:01:45;12.30;99.90
28247;DHT22;34504;53.178;22.058;2022-11-13T16:04:32;12.30;99.90
28247;DHT22;34504;53.178;22.058;2022-11-13T16:07:39;12.30;99.90
28247;DHT22;34504;53.178;22.058;2022-11-13T16:10:27;12.20;99.90
28247;DHT22;34504;53.178;22.058;2022-11-13T16:13:14;12.20;99.90
28247;DHT22;34504;53.178;22.058;2022-11-13T16:16:01;12.20;99.90
28247;DHT22;34504;53.178;22.058;2022-11-13T16:18:48;12.20;99.90
28247;DHT22;34504;53.178;22.058;2022-11-13T16:21:39;12.10;99.90
28247;DHT22;34504;53.178;22.058;2022-11-13T16:24:26;12.10;99.90
28247;DHT22;34504;53.178;22.058;2022-11-13T16:27:16;12.20;99.90
28247;DHT22;34504;53.178;22.058;2022-11-13T16:30:11;12.10;99.90
28247;DHT22;34504;53.178;22.058;2022-11-13T16:32:58;12.10;99.90
28247;DHT22;34504;53.178;22.058;2022-11-13T16:35:46;12.10;99.90
28247;DHT22;34504;53.178;22.058;2022-11-13T16:38:33;12.10;99.90
28247;DHT22;34504;53.178;22.058;2022-11-13T16:41:21;12.10;99.90
28247;DHT22;34504;53.178;22.058;2022-11-13T16:44:09;12.10;99.90
28247;DHT22;34504;53.178;22.058;2022-11-13T16:46:56;12.10;99.90
28247;DHT22;34504;53.178;22.058;2022-11-13T16:49:42;12.10;99.90
28247;DHT22;34504;53.178;22.058;2022-11-13T16:52:29;12.10;99.90
28247;DHT22;34504;53.178;22.058;2022-11-13T16:55:16;12.00;99.90
28247;DHT22;34504;53.178;22.058;2022-11-13T16:58:04;12.00;99.90
28247;DHT22;34504;53.178;22.058;2022-11-13T17:00:51;12.00;99.90
28247;DHT22;34504;53.178;22.058;2022-11-13T17:03:44;12.00;99.90
28247;DHT22;34504;53.178;22.058;2022-11-13T17:06:33;12.00;99.90
28247;DHT22;34504;53.178;22.058;2022-11-13T17:09:21;11.90;99.90
28247;DHT22;34504;53.178;22.058;2022-11-13T17:12:08;11.90;99.90
28247;DHT22;34504;53.178;22.058;2022-11-13T17:14:55;11.90;99.90
28247;DHT22;34504;53.178;22.058;2022-11-13T17:17:41;11.90;99.90
28247;DHT22;34504;53.178;22.058;2022-11-13T17:20:34;11.90;99.90
28247;DHT22;34504;53.178;22.058;2022-11-13T17:23:22;11.90;99.90
28247;DHT22;34504;53.178;22.058;2022-11-13T17:26:09;11.90;99.90
28247;DHT22;34504;53.178;22.058;2022-11-13T17:28:55;11.90;99.90
28247;DHT22;34504;53.178;22.058;2022-11-13T17:31:44;11.90;99.90
28247;DHT22;34504;53.178;22.058;2022-11-13T17:34:31;11.90;99.90
28247;DHT22;34504;53.178;22.058;2022-11-13T17:37:19;11.90;99.90
28247;DHT22;34504;53.178;22.058;2022-11-13T17:40:10;11.90;99.90
28247;DHT22;34504;53.178;22.058;2022-11-13T17:42:57;11.80;99.90
28247;DHT22;34504;53.178;22.058;2022-11-13T17:45:49;11.80;99.90
28247;DHT22;34504;53.178;22.058;2022-11-13T17:48:37;11.90;99.90
28247;DHT22;34504;53.178;22.058;2022-11-13T17:51:23;11.90;99.90
28247;DHT22;34504;53.178;22.058;2022-11-13T17:54:10;11.90;99.90
28247;DHT22;34504;53.178;22.058;2022-11-13T17:56:57;11.90;99.90
28247;DHT22;34504;53.178;22.058;2022-11-13T17:59:43;11.90;99.90
28247;DHT22;34504;53.178;22.058;2022-11-13T18:02:32;11.90;99.90
28247;DHT22;34504;53.178;22.058;2022-11-13T18:05:19;11.80;99.90
28247;DHT22;34504;53.178;22.058;2022-11-13T18:08:06;11.80;99.90
28247;DHT22;34504;53.178;22.058;2022-11-13T18:10:53;11.90;99.90
28247;DHT22;34504;53.178;22.058;2022-11-13T18:13:39;11.90;99.90
28247;DHT22;34504;53.178;22.058;2022-11-13T18:16:28;11.90;99.90
28247;DHT22;34504;53.178;22.058;2022-11-13T18:19:16;11.80;99.90
28247;DHT22;34504;53.178;22.058;2022-11-13T18:22:03;11.80;99.90
28247;DHT22;34504;53.178;22.058;2022-11-13T18:24:50;11.90;99.90
28247;DHT22;34504;53.178;22.058;2022-11-13T18:27:40;11.90;99.90
28247;DHT22;34504;53.178;22.058;2022-11-13T18:30:27;11.90;99.90
28247;DHT22;34504;53.178;22.058;2022-11-13T18:33:14;11.90;99.90
28247;DHT22;34504;53.178;22.058;2022-11-13T18:36:03;11.90;99.90
28247;DHT22;34504;53.178;22.058;2022-11-13T18:38:50;11.80;99.90
28247;DHT22;34504;53.178;22.058;2022-11-13T18:41:40;11.80;99.90
28247;DHT22;34504;53.178;22.058;2022-11-13T18:44:30;11.80;99.90
28247;DHT22;34504;53.178;22.058;2022-11-13T18:47:17;11.80;99.90
28247;DHT22;34504;53.178;22.058;2022-11-13T18:50:05;11.80;99.90
28247;DHT22;34504;53.178;22.058;2022-11-13T18:52:54;11.80;99.90
28247;DHT22;34504;53.178;22.058;2022-11-13T18:55:40;11.80;99.90
28247;DHT22;34504;53.178;22.058;2022-11-13T18:58:27;11.90;99.90
28247;DHT22;34504;53.178;22.058;2022-11-13T19:01:25;11.90;99.90